Time;durP1;ratioP1;P1;durP2;ratioP2;P2;SDS_P1;SDS_P2;PMS_P1;PMS_P2;Temp;Humidity;BMP_temperature;BMP_pressure;BME280_temperature;BME280_humidity;BME280_pressure;Samples;Min_cycle;Max_cycle;Signal;HPM_P1;HPM_P2
2021/08/20 00:02:10;;;;;;;7.70;2.42;;;15.30;99.90;;;;;;5043902;28;20116;-75
2021/08/20 00:04:35;;;;;;;16.35;3.60;;;15.30;99.90;;;;;;5042718;28;20030;-76
2021/08/20 00:07:01;;;;;;;7.15;2.53;;;15.30;99.90;;;;;;5059259;28;20034;-75
2021/08/20 00:09:27;;;;;;;12.05;3.50;;;15.30;99.90;;;;;;5044564;28;20433;-76
2021/08/20 00:11:53;;;;;;;5.97;3.03;;;15.30;99.90;;;;;;5044350;28;20030;-78
2021/08/20 00:14:19;;;;;;;10.48;2.33;;;15.30;99.90;;;;;;5044156;28;20060;-77
2021/08/20 00:16:46;;;;;;;9.68;2.83;;;15.20;99.90;;;;;;5043258;28;20049;-76
2021/08/20 00:19:12;;;;;;;9.23;3.10;;;15.20;99.90;;;;;;5044440;28;20057;-76
2021/08/20 00:21:38;;;;;;;5.28;2.58;;;15.20;99.90;;;;;;5043972;28;20040;-76
2021/08/20 00:24:05;;;;;;;7.25;2.90;;;15.10;99.90;;;;;;5044412;28;20026;-76
2021/08/20 00:26:31;;;;;;;5.47;2.22;;;15.10;99.90;;;;;;5042846;28;20091;-76
2021/08/20 00:28:56;;;;;;;13.93;2.85;;;15.10;99.90;;;;;;5043986;28;20543;-76
2021/08/20 00:31:23;;;;;;;5.32;2.60;;;15.10;99.90;;;;;;5044008;28;20033;-77
2021/08/20 00:33:48;;;;;;;7.43;2.65;;;15.10;99.90;;;;;;5043131;28;20029;-78
2021/08/20 00:36:14;;;;;;;11.75;2.22;;;15.10;99.90;;;;;;5059613;28;20176;-80
2021/08/20 00:38:40;;;;;;;6.18;2.90;;;15.10;99.90;;;;;;5042389;28;20037;-80
2021/08/20 00:41:12;;;;;;;6.85;2.45;;;15.10;99.90;;;;;;5059272;28;20030;-77
2021/08/20 00:43:43;;;;;;;2.97;2.13;;;15.00;99.90;;;;;;5044045;28;20022;-75
2021/08/20 00:46:09;;;;;;;6.85;2.78;;;15.00;99.90;;;;;;5042479;28;20049;-74
2021/08/20 00:48:36;;;;;;;5.32;2.42;;;15.00;99.90;;;;;;5043901;28;20506;-75
2021/08/20 00:51:05;;;;;;;6.18;2.40;;;14.80;99.90;;;;;;5043891;28;20036;-76
2021/08/20 00:53:33;;;;;;;8.20;2.30;;;14.90;99.90;;;;;;5042721;28;20056;-75
2021/08/20 00:56:00;;;;;;;5.93;2.40;;;14.90;99.90;;;;;;5044328;28;20022;-75
2021/08/20 00:58:26;;;;;;;6.05;2.05;;;14.90;99.90;;;;;;5043355;28;20034;-75
2021/08/20 01:00:53;;;;;;;14.90;3.00;;;14.90;99.90;;;;;;5042702;28;20089;-74
2021/08/20 01:03:19;;;;;;;6.43;3.05;;;14.90;99.90;;;;;;5044049;28;20052;-73
2021/08/20 01:05:45;;;;;;;7.78;2.70;;;15.00;99.90;;;;;;5043040;28;20089;-73
2021/08/20 01:08:10;;;;;;;6.70;2.05;;;14.90;99.90;;;;;;5043739;28;20052;-73
2021/08/20 01:10:37;;;;;;;5.80;2.13;;;14.80;99.90;;;;;;5042667;28;20029;-74
2021/08/20 01:13:02;;;;;;;6.70;2.20;;;14.90;99.90;;;;;;5045689;28;20076;-73
2021/08/20 01:15:28;;;;;;;9.45;3.13;;;14.90;99.90;;;;;;5062289;28;20490;-74
2021/08/20 01:17:54;;;;;;;9.20;2.83;;;14.90;99.90;;;;;;5047168;28;20429;-72
2021/08/20 01:20:20;;;;;;;10.13;3.22;;;14.90;99.90;;;;;;5047889;28;20022;-71
2021/08/20 01:22:46;;;;;;;9.43;3.65;;;14.90;99.90;;;;;;5062757;28;20029;-72
2021/08/20 01:25:12;;;;;;;3.78;2.15;;;14.90;99.90;;;;;;5062844;28;20029;-72
2021/08/20 01:27:37;;;;;;;9.68;2.72;;;14.80;99.90;;;;;;5045730;28;20025;-73
2021/08/20 01:30:05;;;;;;;8.25;3.45;;;15.00;99.90;;;;;;5046887;28;20103;-73
2021/08/20 01:32:31;;;;;;;6.30;3.10;;;14.90;99.90;;;;;;5047189;28;20026;-72
2021/08/20 01:35:00;;;;;;;5.97;3.08;;;14.80;99.90;;;;;;5047003;28;20026;-73
2021/08/20 01:37:25;;;;;;;6.38;3.22;;;14.90;99.90;;;;;;5062334;28;20032;-72
2021/08/20 01:39:51;;;;;;;14.10;4.18;;;14.90;99.90;;;;;;5045700;28;20034;-72
2021/08/20 01:42:19;;;;;;;8.07;3.50;;;14.90;99.90;;;;;;5045542;28;20056;-73
2021/08/20 01:44:44;;;;;;;7.95;4.18;;;14.90;99.90;;;;;;5062463;28;20033;-73
2021/08/20 01:47:11;;;;;;;7.55;3.65;;;14.80;99.90;;;;;;5045355;28;20746;-73
2021/08/20 01:49:38;;;;;;;10.80;3.53;;;14.90;99.90;;;;;;5045643;28;20033;-72
2021/08/20 01:52:05;;;;;;;6.90;3.30;;;14.90;99.90;;;;;;5062024;28;20044;-72
2021/08/20 01:54:30;;;;;;;7.68;3.33;;;14.90;99.90;;;;;;5046505;28;20025;-73
2021/08/20 01:56:56;;;;;;;6.30;2.95;;;14.90;99.90;;;;;;5046802;28;20051;-73
2021/08/20 01:59:21;;;;;;;9.45;3.72;;;14.90;99.90;;;;;;5062050;28;20045;-72
2021/08/20 02:01:47;;;;;;;11.52;3.20;;;15.00;99.90;;;;;;5045447;28;20029;-71
2021/08/20 02:04:13;;;;;;;6.00;2.47;;;14.90;99.90;;;;;;5046820;28;20085;-72
2021/08/20 02:06:38;;;;;;;5.15;2.35;;;14.90;99.90;;;;;;5044949;28;20441;-72
2021/08/20 02:09:04;;;;;;;5.88;2.03;;;14.90;99.90;;;;;;5061482;28;20025;-73
2021/08/20 02:11:29;;;;;;;5.50;2.20;;;14.90;99.90;;;;;;5061843;28;20033;-73
2021/08/20 02:13:56;;;;;;;5.43;2.17;;;14.90;99.90;;;;;;5045890;28;20092;-73
2021/08/20 02:16:21;;;;;;;4.50;2.17;;;14.90;99.90;;;;;;5046613;28;20108;-73
2021/08/20 02:18:47;;;;;;;3.75;2.03;;;14.90;99.90;;;;;;5046563;28;20033;-73
2021/08/20 02:21:13;;;;;;;3.95;2.10;;;14.90;99.90;;;;;;5046261;28;20036;-73
2021/08/20 02:23:38;;;;;;;8.15;2.72;;;14.80;99.90;;;;;;5046149;28;20057;-73
2021/08/20 02:26:06;;;;;;;3.10;1.85;;;14.80;99.90;;;;;;5046566;28;20034;-73
2021/08/20 02:28:32;;;;;;;6.18;2.63;;;14.80;99.90;;;;;;5045495;28;20022;-74
2021/08/20 02:30:57;;;;;;;4.90;2.03;;;14.80;99.90;;;;;;5045985;28;20025;-74
2021/08/20 02:33:23;;;;;;;2.92;1.80;;;14.80;99.90;;;;;;5045968;28;20018;-74
2021/08/20 02:35:49;;;;;;;3.35;2.05;;;14.90;99.90;;;;;;5044470;28;20037;-74
2021/08/20 02:38:14;;;;;;;2.83;1.30;;;14.90;99.90;;;;;;5045820;28;20037;-75
2021/08/20 02:40:40;;;;;;;4.57;1.98;;;14.80;99.90;;;;;;5045851;28;20025;-73
2021/08/20 02:43:06;;;;;;;6.13;2.33;;;14.90;99.90;;;;;;5061210;28;20125;-74
2021/08/20 02:45:31;;;;;;;4.07;2.13;;;14.80;99.90;;;;;;5044636;28;20036;-74
2021/08/20 02:47:57;;;;;;;3.42;1.77;;;14.70;99.90;;;;;;5044470;28;20101;-74
2021/08/20 02:50:22;;;;;;;2.85;1.88;;;14.80;99.90;;;;;;5044508;28;20053;-76
2021/08/20 02:52:48;;;;;;;3.13;1.83;;;14.80;99.90;;;;;;5045793;28;20022;-75
2021/08/20 02:55:14;;;;;;;2.88;1.70;;;14.70;99.90;;;;;;5045680;28;20457;-74
2021/08/20 02:57:40;;;;;;;3.38;1.88;;;14.80;99.90;;;;;;5045599;28;20025;-74
2021/08/20 03:00:06;;;;;;;5.28;2.67;;;14.80;99.90;;;;;;5045062;28;20034;-74
2021/08/20 03:02:31;;;;;;;3.45;1.67;;;14.80;99.90;;;;;;5044171;28;20079;-74
2021/08/20 03:04:57;;;;;;;2.90;1.77;;;14.80;99.90;;;;;;5045431;28;20120;-73
2021/08/20 03:07:23;;;;;;;3.33;2.03;;;14.80;99.90;;;;;;5044942;28;20086;-76
2021/08/20 03:09:48;;;;;;;5.10;2.25;;;14.80;99.90;;;;;;5044430;28;20029;-75
2021/08/20 03:12:14;;;;;;;3.67;1.95;;;14.80;99.90;;;;;;5045432;28;20029;-76
2021/08/20 03:14:39;;;;;;;2.92;1.65;;;14.80;99.90;;;;;;5044556;28;20045;-74
2021/08/20 03:17:05;;;;;;;3.88;2.05;;;14.80;99.90;;;;;;5045428;28;20140;-74
2021/08/20 03:19:31;;;;;;;4.45;1.73;;;14.90;99.90;;;;;;5044904;28;20037;-74
2021/08/20 03:21:57;;;;;;;6.30;2.38;;;14.80;99.90;;;;;;5045003;28;20037;-74
2021/08/20 03:24:24;;;;;;;4.10;1.83;;;14.80;99.90;;;;;;5045196;28;20049;-74
2021/08/20 03:26:50;;;;;;;4.90;2.78;;;14.80;99.90;;;;;;5044876;28;20022;-74
2021/08/20 03:29:16;;;;;;;3.85;2.03;;;14.80;99.90;;;;;;5045508;28;20030;-74
2021/08/20 03:31:42;;;;;;;4.53;1.92;;;14.70;99.90;;;;;;5044896;28;20041;-74
2021/08/20 03:34:08;;;;;;;5.40;2.28;;;14.80;99.90;;;;;;5044943;28;20032;-74
2021/08/20 03:36:34;;;;;;;8.50;2.00;;;14.70;99.90;;;;;;5044430;28;20028;-74
2021/08/20 03:39:00;;;;;;;5.90;1.92;;;14.80;99.90;;;;;;5044613;28;20041;-75
2021/08/20 03:41:25;;;;;;;4.45;2.22;;;14.70;99.90;;;;;;5044769;28;20052;-74
2021/08/20 03:43:51;;;;;;;4.72;2.40;;;14.70;99.90;;;;;;5044676;28;20375;-74
2021/08/20 03:46:17;;;;;;;3.25;1.88;;;14.70;99.90;;;;;;5044854;28;20025;-73
2021/08/20 03:48:44;;;;;;;6.00;2.75;;;14.60;99.90;;;;;;5044754;28;20040;-74
2021/08/20 03:51:11;;;;;;;3.60;2.10;;;14.70;99.90;;;;;;5044745;28;20026;-75
2021/08/20 03:53:37;;;;;;;5.30;2.55;;;14.70;99.90;;;;;;5044601;28;20033;-73
2021/08/20 03:56:02;;;;;;;4.63;2.28;;;14.70;99.90;;;;;;5044507;28;20037;-74
2021/08/20 03:58:28;;;;;;;6.13;3.03;;;14.70;99.90;;;;;;5059629;28;20039;-74
2021/08/20 04:00:54;;;;;;;3.67;2.25;;;14.70;99.90;;;;;;5042946;28;20441;-74
2021/08/20 04:03:21;;;;;;;4.10;2.45;;;14.70;99.90;;;;;;5044746;28;20025;-74
2021/08/20 04:05:47;;;;;;;6.15;2.63;;;14.70;99.90;;;;;;5044783;28;20034;-75
2021/08/20 04:08:14;;;;;;;5.05;2.17;;;14.70;99.90;;;;;;5044622;28;20025;-74
2021/08/20 04:10:42;;;;;;;5.18;2.30;;;14.80;99.90;;;;;;5042937;28;20039;-72
2021/08/20 04:13:08;;;;;;;6.30;2.10;;;14.70;99.90;;;;;;5043867;28;20089;-75
2021/08/20 04:15:35;;;;;;;6.50;2.00;;;14.70;99.90;;;;;;5044116;28;20045;-73
2021/08/20 04:18:00;;;;;;;8.48;2.30;;;14.60;99.90;;;;;;5045837;28;20033;-74
2021/08/20 04:20:26;;;;;;;4.10;1.85;;;14.80;99.90;;;;;;5049283;28;20081;-72
2021/08/20 04:22:53;;;;;;;7.10;2.70;;;14.70;99.90;;;;;;5049511;28;20017;-72
2021/08/20 04:25:19;;;;;;;5.65;2.45;;;14.80;99.90;;;;;;5047559;28;20030;-73
2021/08/20 04:27:45;;;;;;;3.72;2.03;;;14.70;99.90;;;;;;5048309;28;20032;-72
2021/08/20 04:30:11;;;;;;;4.50;2.10;;;14.80;99.90;;;;;;5049085;28;20025;-71
2021/08/20 04:32:37;;;;;;;8.50;2.40;;;14.80;99.90;;;;;;5048561;28;20037;-71
2021/08/20 04:35:03;;;;;;;3.92;1.98;;;14.80;99.90;;;;;;5064314;28;20033;-72
2021/08/20 04:37:29;;;;;;;3.42;2.13;;;14.80;99.90;;;;;;5063107;28;20481;-72
2021/08/20 04:39:54;;;;;;;3.08;1.63;;;14.80;99.90;;;;;;5042311;28;20034;-74
2021/08/20 04:42:20;;;;;;;5.05;2.38;;;14.80;99.90;;;;;;5044044;28;20060;-72
2021/08/20 04:44:46;;;;;;;3.38;2.08;;;14.70;99.90;;;;;;5043007;28;20096;-74
2021/08/20 04:47:12;;;;;;;5.43;2.80;;;14.80;99.90;;;;;;5044110;28;20401;-72
2021/08/20 04:49:37;;;;;;;4.00;2.17;;;14.80;99.90;;;;;;5048035;28;20040;-71
2021/08/20 04:52:04;;;;;;;5.68;2.33;;;14.80;99.90;;;;;;5048158;28;20029;-71
2021/08/20 04:54:29;;;;;;;6.40;2.50;;;14.80;99.90;;;;;;5047765;28;20040;-72
2021/08/20 04:56:55;;;;;;;5.65;2.70;;;14.80;99.90;;;;;;5047833;28;20022;-73
2021/08/20 04:59:20;;;;;;;6.45;1.92;;;14.70;99.90;;;;;;5047889;28;20490;-72
2021/08/20 05:01:46;;;;;;;5.55;2.50;;;14.70;99.90;;;;;;5047588;28;20053;-72
2021/08/20 05:04:12;;;;;;;4.97;2.70;;;14.80;99.90;;;;;;5047640;28;20025;-71
2021/08/20 05:06:39;;;;;;;4.78;2.50;;;14.80;99.90;;;;;;5046160;28;20034;-71
2021/08/20 05:09:06;;;;;;;6.25;2.53;;;14.80;99.90;;;;;;5064572;28;20052;-72
2021/08/20 05:11:33;;;;;;;5.38;2.88;;;14.80;99.90;;;;;;5067232;28;20017;-71
2021/08/20 05:13:59;;;;;;;8.00;3.13;;;14.80;99.90;;;;;;5067155;28;20077;-71
2021/08/20 05:16:25;;;;;;;6.15;2.80;;;14.80;99.90;;;;;;5067501;28;20032;-72
2021/08/20 05:18:51;;;;;;;4.30;2.05;;;14.80;99.90;;;;;;5067609;28;20049;-72
2021/08/20 05:21:17;;;;;;;6.07;2.85;;;14.70;99.90;;;;;;5051424;28;20022;-73
2021/08/20 05:23:42;;;;;;;7.38;2.58;;;14.90;99.90;;;;;;5047716;28;20147;-71
2021/08/20 05:26:08;;;;;;;7.78;3.05;;;14.90;99.90;;;;;;5046223;28;20021;-71
2021/08/20 05:28:34;;;;;;;6.25;2.58;;;14.90;99.90;;;;;;5059909;28;20029;-71
2021/08/20 05:30:59;;;;;;;5.50;2.83;;;15.00;99.90;;;;;;5067313;28;20052;-71
2021/08/20 05:33:25;;;;;;;6.85;2.92;;;15.10;99.90;;;;;;5067171;28;20021;-74
2021/08/20 05:35:50;;;;;;;7.78;3.85;;;15.10;99.90;;;;;;5067103;28;20021;-72
2021/08/20 05:38:17;;;;;;;4.88;3.03;;;15.10;99.90;;;;;;5067170;28;20051;-72
2021/08/20 05:40:43;;;;;;;4.43;2.85;;;15.10;99.90;;;;;;5066376;28;20166;-72
2021/08/20 05:43:09;;;;;;;14.75;4.65;;;15.10;99.90;;;;;;5066847;28;20032;-73
2021/08/20 05:45:37;;;;;;;9.07;4.05;;;15.10;99.90;;;;;;5066818;28;20085;-73
2021/08/20 05:48:05;;;;;;;8.13;4.78;;;15.10;99.90;;;;;;5059263;28;20058;-71
2021/08/20 05:50:31;;;;;;;12.05;6.15;;;15.10;99.90;;;;;;5052555;28;20026;-74
2021/08/20 05:52:56;;;;;;;15.25;5.85;;;15.20;99.90;;;;;;5057939;28;20040;-73
2021/08/20 05:55:22;;;;;;;12.02;5.68;;;15.30;99.90;;;;;;5046756;28;20029;-74
2021/08/20 05:57:47;;;;;;;17.83;6.28;;;15.20;99.90;;;;;;5046415;28;20026;-75
2021/08/20 06:00:13;;;;;;;11.85;6.85;;;15.10;99.90;;;;;;5046504;28;20034;-75
2021/08/20 06:02:41;;;;;;;15.10;5.75;;;15.20;99.90;;;;;;5045596;28;20100;-73
2021/08/20 06:05:07;;;;;;;28.27;8.20;;;15.30;99.90;;;;;;5046412;28;20029;-74
2021/08/20 06:07:33;;;;;;;19.63;7.45;;;15.30;99.90;;;;;;5046389;28;20037;-73
2021/08/20 06:09:58;;;;;;;23.00;7.78;;;15.30;99.90;;;;;;5046675;28;20022;-73
2021/08/20 06:12:24;;;;;;;21.55;7.75;;;15.30;99.90;;;;;;5059471;28;20074;-74
2021/08/20 06:14:50;;;;;;;19.50;7.95;;;15.40;99.90;;;;;;5067539;28;20041;-74
2021/08/20 06:17:16;;;;;;;16.02;8.77;;;15.40;99.90;;;;;;5061115;28;20066;-75
2021/08/20 06:19:42;;;;;;;20.65;9.57;;;15.40;99.90;;;;;;5053776;28;20063;-73
2021/08/20 06:22:14;;;;;;;25.55;9.35;;;15.40;99.90;;;;;;5058343;28;20031;-73
2021/08/20 06:24:39;;;;;;;21.73;9.45;;;15.50;99.90;;;;;;5046207;28;20029;-74
2021/08/20 06:27:05;;;;;;;25.45;10.80;;;15.50;99.90;;;;;;5055561;28;20032;-73
2021/08/20 06:29:31;;;;;;;30.83;10.77;;;15.50;99.90;;;;;;5045521;28;20055;-72
2021/08/20 06:32:05;;;;;;;35.10;11.02;;;15.60;99.90;;;;;;5057013;28;20032;-74
2021/08/20 06:34:32;;;;;;;24.23;10.35;;;15.60;99.90;;;;;;5064702;28;20033;-74
2021/08/20 06:36:58;;;;;;;25.35;11.20;;;15.60;99.90;;;;;;5066046;28;20024;-75
2021/08/20 06:39:24;;;;;;;26.92;12.63;;;15.70;99.90;;;;;;5065738;28;20037;-73
2021/08/20 06:41:55;;;;;;;39.70;13.35;;;15.90;99.90;;;;;;5054092;28;20025;-74
2021/08/20 06:44:21;;;;;;;32.25;11.35;;;16.00;99.90;;;;;;5052386;28;20025;-74
2021/08/20 06:46:47;;;;;;;23.27;10.77;;;16.10;99.90;;;;;;5047480;28;20024;-74
2021/08/20 06:49:13;;;;;;;31.73;12.25;;;16.20;99.90;;;;;;5051999;28;20143;-74
2021/08/20 06:51:39;;;;;;;28.58;11.13;;;16.20;99.90;;;;;;5061438;28;20084;-72
2021/08/20 06:54:05;;;;;;;22.48;11.40;;;16.20;99.90;;;;;;5048369;28;20037;-73
2021/08/20 06:56:31;;;;;;;25.75;10.60;;;16.20;99.90;;;;;;5059453;28;20009;-73
2021/08/20 06:58:57;;;;;;;35.35;11.95;;;16.20;99.90;;;;;;5068125;28;20063;-74
2021/08/20 07:01:27;;;;;;;23.00;11.25;;;16.20;99.90;;;;;;5051529;28;20047;-71
2021/08/20 07:03:53;;;;;;;27.83;12.05;;;16.20;99.90;;;;;;5055878;28;20025;-77
2021/08/20 07:06:24;;;;;;;31.00;12.27;;;16.20;99.90;;;;;;5051087;28;20025;-74
2021/08/20 07:08:50;;;;;;;26.27;11.35;;;16.30;99.90;;;;;;5057395;28;20025;-76
2021/08/20 07:11:20;;;;;;;34.85;11.80;;;16.20;99.90;;;;;;5053415;28;20025;-75
2021/08/20 07:13:47;;;;;;;24.17;11.05;;;16.20;99.90;;;;;;5054228;28;20037;-77
2021/08/20 07:16:13;;;;;;;25.52;11.13;;;16.20;99.90;;;;;;5052860;28;20041;-74
2021/08/20 07:18:39;;;;;;;26.27;10.95;;;16.10;99.90;;;;;;5048924;28;20430;-74
2021/08/20 07:21:05;;;;;;;37.45;13.10;;;16.10;99.90;;;;;;5054320;28;20092;-71
2021/08/20 07:23:32;;;;;;;30.20;11.85;;;16.20;99.90;;;;;;5062656;28;20036;-72
2021/08/20 07:26:02;;;;;;;28.75;11.27;;;16.10;99.90;;;;;;5064514;28;20349;-72
2021/08/20 07:28:27;;;;;;;30.65;12.30;;;16.10;99.90;;;;;;5058049;28;20033;-72
2021/08/20 07:30:55;;;;;;;24.80;11.93;;;16.00;99.90;;;;;;5048818;28;20056;-71
2021/08/20 07:33:20;;;;;;;36.65;12.80;;;16.00;99.90;;;;;;5055707;28;20033;-71
2021/08/20 07:35:47;;;;;;;28.60;13.20;;;16.00;99.90;;;;;;5055465;28;20060;-73
2021/08/20 07:38:12;;;;;;;26.30;13.05;;;16.00;99.90;;;;;;5057067;28;20028;-70
2021/08/20 07:40:38;;;;;;;29.48;12.98;;;16.10;99.90;;;;;;5063218;28;20033;-72
2021/08/20 07:43:05;;;;;;;36.95;13.25;;;16.10;99.90;;;;;;5064336;28;20032;-70
2021/08/20 07:45:30;;;;;;;29.15;12.52;;;16.10;99.90;;;;;;5054982;28;20108;-72
2021/08/20 07:47:56;;;;;;;27.75;11.98;;;16.20;99.90;;;;;;5065916;28;20371;-70
2021/08/20 07:50:25;;;;;;;23.42;12.38;;;16.30;99.90;;;;;;5051140;28;20063;-72
2021/08/20 07:52:51;;;;;;;28.10;12.15;;;16.40;99.90;;;;;;5060261;28;20025;-72
2021/08/20 07:55:17;;;;;;;24.80;11.70;;;16.50;99.90;;;;;;5059665;28;20036;-70
2021/08/20 07:57:44;;;;;;;39.17;13.00;;;16.60;99.90;;;;;;5042949;28;20244;-71
2021/08/20 08:00:12;;;;;;;21.52;11.02;;;16.60;99.90;;;;;;5046491;28;20048;-70
2021/08/20 08:02:37;;;;;;;22.13;10.45;;;16.60;99.90;;;;;;5050853;28;20037;-69
2021/08/20 08:05:03;;;;;;;22.95;10.75;;;16.70;99.90;;;;;;5057753;28;20025;-72
2021/08/20 08:07:29;;;;;;;21.98;10.27;;;16.80;99.90;;;;;;5045279;28;20036;-74
2021/08/20 08:09:55;;;;;;;21.38;10.13;;;16.80;99.90;;;;;;5059383;28;20496;-74
2021/08/20 08:12:21;;;;;;;24.02;10.48;;;16.90;99.90;;;;;;5043953;28;20088;-71
2021/08/20 08:14:47;;;;;;;28.55;10.18;;;16.80;99.90;;;;;;5044461;28;20489;-73
2021/08/20 08:17:12;;;;;;;20.45;10.48;;;16.90;99.90;;;;;;5044155;28;20029;-70
2021/08/20 08:19:39;;;;;;;20.55;10.43;;;17.00;99.90;;;;;;5044829;28;20107;-73
2021/08/20 08:22:04;;;;;;;25.85;9.75;;;17.00;99.90;;;;;;5052137;28;20044;-72
2021/08/20 08:24:30;;;;;;;25.13;10.27;;;17.00;99.90;;;;;;5057986;28;20033;-71
2021/08/20 08:26:56;;;;;;;20.08;10.07;;;17.00;99.90;;;;;;5086424;28;20094;-71
2021/08/20 08:29:25;;;;;;;20.65;9.85;;;17.10;99.90;;;;;;5055462;28;20032;-72
2021/08/20 08:31:52;;;;;;;20.88;9.00;;;17.20;99.90;;;;;;5076848;28;20026;-75
2021/08/20 08:34:18;;;;;;;15.88;8.25;;;17.30;99.90;;;;;;5066440;28;20043;-74
2021/08/20 08:36:44;;;;;;;17.75;8.73;;;17.50;99.90;;;;;;5060704;28;20036;-74
2021/08/20 08:39:10;;;;;;;17.35;7.75;;;17.40;99.90;;;;;;5063622;28;20037;-74
2021/08/20 08:41:36;;;;;;;14.27;7.57;;;17.50;99.90;;;;;;5057231;28;20029;-75
2021/08/20 08:44:01;;;;;;;12.63;7.28;;;17.50;99.90;;;;;;5061837;28;20017;-73
2021/08/20 08:46:29;;;;;;;16.52;7.93;;;17.60;99.90;;;;;;5070728;28;20152;-76
2021/08/20 08:49:02;;;;;;;16.02;7.13;;;17.70;99.90;;;;;;5060440;28;20036;-75
2021/08/20 08:51:27;;;;;;;18.35;7.50;;;17.70;99.90;;;;;;5064110;28;20037;-73
2021/08/20 08:53:53;;;;;;;16.65;8.27;;;17.70;99.90;;;;;;5058795;28;20029;-74
2021/08/20 08:56:22;;;;;;;18.75;8.93;;;17.70;99.90;;;;;;5059056;28;20098;-74
2021/08/20 08:58:49;;;;;;;19.30;7.95;;;17.70;99.90;;;;;;5063932;28;20040;-74
2021/08/20 09:01:30;;;;;;;20.35;8.02;;;17.70;99.90;;;;;;5067405;28;20081;-72
2021/08/20 09:04:20;;;;;;;21.70;8.52;;;17.80;99.90;;;;;;5069070;28;20029;-75
2021/08/20 09:07:03;;;;;;;19.10;7.53;;;17.90;99.90;;;;;;5068479;28;20059;-75
2021/08/20 09:09:30;;;;;;;14.17;6.30;;;17.90;99.90;;;;;;5066984;28;20025;-75
2021/08/20 09:12:01;;;;;;;14.70;6.75;;;18.00;99.90;;;;;;5069227;28;20025;-72
2021/08/20 09:14:35;;;;;;;17.30;6.55;;;17.90;99.90;;;;;;5067765;28;20041;-73
2021/08/20 09:17:09;;;;;;;11.90;6.15;;;17.90;99.90;;;;;;5069024;28;20039;-76
2021/08/20 09:19:34;;;;;;;13.77;7.07;;;17.90;99.90;;;;;;5068191;28;20068;-74
2021/08/20 09:22:10;;;;;;;10.82;5.85;;;18.10;99.90;;;;;;5061058;28;20509;-75
2021/08/20 09:24:45;;;;;;;19.67;6.88;;;18.30;99.90;;;;;;5068628;28;20029;-74
2021/08/20 09:27:14;;;;;;;9.25;5.32;;;18.40;99.90;;;;;;5068192;28;20021;-74
2021/08/20 09:30:06;;;;;;;11.10;4.63;;;18.70;99.90;;;;;;5058533;28;20036;-73
2021/08/20 09:32:35;;;;;;;11.48;5.18;;;18.90;99.90;;;;;;5064568;28;20103;-75
2021/08/20 09:35:00;;;;;;;9.52;4.82;;;19.10;99.90;;;;;;5045971;28;20033;-73
2021/08/20 09:37:28;;;;;;;7.53;4.00;;;19.20;99.90;;;;;;5051558;28;20055;-77
2021/08/20 09:40:01;;;;;;;7.45;4.32;;;19.30;99.90;;;;;;5055085;28;20044;-73
2021/08/20 09:42:27;;;;;;;7.75;4.20;;;19.40;99.90;;;;;;5054800;28;20025;-75
2021/08/20 09:45:20;;;;;;;10.20;3.65;;;19.50;99.90;;;;;;5054965;28;20074;-80
2021/08/20 09:47:55;;;;;;;8.93;4.50;;;19.70;99.90;;;;;;5049084;28;20032;-73
2021/08/20 09:50:39;;;;;;;5.82;3.25;;;19.80;99.90;;;;;;5065876;28;20025;-74
2021/08/20 09:53:15;;;;;;;6.73;3.50;;;19.90;99.90;;;;;;5065828;28;20025;-71
2021/08/20 09:55:43;;;;;;;7.40;4.25;;;20.00;99.90;;;;;;5065493;28;20052;-72
2021/08/20 09:58:13;;;;;;;10.73;4.45;;;20.00;99.90;;;;;;5054338;28;20048;-77
2021/08/20 10:00:41;;;;;;;8.10;3.75;;;19.90;99.90;;;;;;5061195;28;20034;-74
2021/08/20 10:03:10;;;;;;;9.98;4.68;;;20.00;99.90;;;;;;5054719;28;20029;-74
2021/08/20 10:05:37;;;;;;;12.40;4.32;;;20.10;99.90;;;;;;5054967;28;20049;-74
2021/08/20 10:08:05;;;;;;;11.15;4.05;;;20.10;99.90;;;;;;5058175;28;20604;-72
2021/08/20 10:10:32;;;;;;;8.32;4.28;;;20.10;99.90;;;;;;5059192;28;20079;-74
2021/08/20 10:12:59;;;;;;;10.00;4.28;;;20.30;99.90;;;;;;5041611;28;20079;-75
2021/08/20 10:15:25;;;;;;;9.05;3.25;;;20.60;99.90;;;;;;5042070;28;20053;-71
2021/08/20 10:17:52;;;;;;;13.73;3.28;;;20.70;99.90;;;;;;5054346;28;20099;-72
2021/08/20 10:20:19;;;;;;;7.60;3.10;;;20.70;99.90;;;;;;5057949;28;20088;-74
2021/08/20 10:22:46;;;;;;;6.90;3.17;;;20.50;99.90;;;;;;5053168;28;20111;-76
2021/08/20 10:25:11;;;;;;;6.63;3.65;;;20.50;99.90;;;;;;5055076;28;20029;-75
2021/08/20 10:27:38;;;;;;;5.30;2.83;;;20.60;99.90;;;;;;5044364;28;20022;-72
2021/08/20 10:30:09;;;;;;;5.55;3.10;;;20.60;99.90;;;;;;5047435;28;20080;-76
2021/08/20 10:32:34;;;;;;;8.88;4.00;;;20.70;99.90;;;;;;5050153;28;20038;-69
2021/08/20 10:35:00;;;;;;;6.50;3.17;;;20.90;99.90;;;;;;5056619;28;20029;-72
2021/08/20 10:37:30;;;;;;;7.22;3.85;;;21.20;99.90;;;;;;5045173;28;20038;-73
2021/08/20 10:40:13;;;;;;;17.58;4.65;;;21.10;99.90;;;;;;5042879;28;20037;-72
2021/08/20 10:42:41;;;;;;;5.93;2.95;;;21.00;99.90;;;;;;5059946;28;20040;-70
2021/08/20 10:45:13;;;;;;;7.53;3.72;;;21.00;99.90;;;;;;5058569;28;20033;-73
2021/08/20 10:47:40;;;;;;;5.93;3.33;;;21.10;99.90;;;;;;5055551;28;20029;-74
2021/08/20 10:50:09;;;;;;;6.15;3.53;;;20.90;99.90;;;;;;5052303;28;20021;-72
2021/08/20 10:52:38;;;;;;;11.20;3.75;;;20.90;99.90;;;;;;5065849;28;20504;-73
2021/08/20 10:55:12;;;;;;;5.65;3.35;;;21.00;99.90;;;;;;5050924;28;20033;-70
2021/08/20 10:57:42;;;;;;;7.00;3.75;;;21.10;99.90;;;;;;5053118;28;20060;-71
2021/08/20 11:00:29;;;;;;;5.70;3.63;;;21.30;99.90;;;;;;5056558;28;20047;-71
2021/08/20 11:02:59;;;;;;;4.00;2.55;;;21.40;99.90;;;;;;5053821;28;20045;-70
2021/08/20 11:05:45;;;;;;;6.85;3.50;;;21.30;99.90;;;;;;5061960;28;20323;-72
2021/08/20 11:08:26;;;;;;;5.78;2.70;;;21.30;99.90;;;;;;5063546;28;20025;-72
2021/08/20 11:10:53;;;;;;;5.35;2.78;;;21.30;99.90;;;;;;5065032;28;20029;-72
2021/08/20 11:13:19;;;;;;;5.60;2.88;;;21.20;99.90;;;;;;5065109;28;20029;-73
2021/08/20 11:15:48;;;;;;;4.68;2.50;;;21.20;99.90;;;;;;5062792;28;20048;-72
2021/08/20 11:18:15;;;;;;;8.25;3.22;;;21.20;99.90;;;;;;5064747;28;20051;-73
2021/08/20 11:20:43;;;;;;;6.55;3.25;;;21.50;99.90;;;;;;5065305;28;20397;-74
2021/08/20 11:23:09;;;;;;;5.35;2.78;;;21.60;99.90;;;;;;5062907;28;20034;-76
2021/08/20 11:25:36;;;;;;;5.00;2.90;;;22.00;99.90;;;;;;5071683;28;20033;-73
2021/08/20 11:28:05;;;;;;;8.63;2.90;;;22.20;99.90;;;;;;5055377;28;20047;-74
2021/08/20 11:30:31;;;;;;;5.35;2.53;;;22.40;99.90;;;;;;5045213;28;20104;-76
2021/08/20 11:33:19;;;;;;;7.35;3.63;;;22.70;99.90;;;;;;5044958;28;20029;-70
2021/08/20 11:35:51;;;;;;;5.32;3.05;;;22.90;99.90;;;;;;5045186;28;20033;-73
2021/08/20 11:38:28;;;;;;;5.05;2.78;;;22.90;99.90;;;;;;5045192;28;20025;-69
2021/08/20 11:40:59;;;;;;;6.47;2.75;;;23.00;99.90;;;;;;5045002;28;20029;-75
2021/08/20 11:43:27;;;;;;;4.93;2.28;;;22.90;99.90;;;;;;5044400;28;20036;-76
2021/08/20 11:46:00;;;;;;;3.25;2.00;;;22.60;99.90;;;;;;5060245;28;20060;-77
2021/08/20 11:48:27;;;;;;;3.63;1.98;;;22.50;99.90;;;;;;5044243;28;20030;-77
2021/08/20 11:50:54;;;;;;;4.88;2.95;;;22.30;99.90;;;;;;5044311;28;20086;-74
2021/08/20 11:53:21;;;;;;;4.68;3.10;;;22.20;99.90;;;;;;5044744;28;20032;-77
2021/08/20 11:55:47;;;;;;;4.45;2.30;;;21.90;99.90;;;;;;5044571;28;20029;-75
2021/08/20 11:58:28;;;;;;;3.80;1.95;;;21.70;99.90;;;;;;5044476;28;20497;-74
2021/08/20 12:00:54;;;;;;;5.03;2.63;;;21.40;99.90;;;;;;5044399;28;20064;-75
2021/08/20 12:03:19;;;;;;;4.43;2.45;;;21.20;99.90;;;;;;5044764;28;20030;-76
2021/08/20 12:05:45;;;;;;;5.53;2.53;;;21.00;99.90;;;;;;5057924;28;20025;-74
2021/08/20 12:08:18;;;;;;;4.30;2.88;;;20.80;99.90;;;;;;5064054;28;20028;-76
2021/08/20 12:10:49;;;;;;;3.33;2.20;;;20.60;99.90;;;;;;5064496;28;20048;-75
2021/08/20 12:13:15;;;;;;;4.80;2.78;;;20.30;99.90;;;;;;5064268;28;20029;-74
2021/08/20 12:15:41;;;;;;;5.70;3.08;;;20.10;99.90;;;;;;5059425;28;20092;-75
2021/08/20 12:18:27;;;;;;;5.57;3.53;;;19.90;99.90;;;;;;5053206;28;20029;-76
2021/08/20 12:20:57;;;;;;;5.85;2.83;;;19.70;99.90;;;;;;5058726;28;20041;-73
2021/08/20 12:23:23;;;;;;;6.07;2.88;;;19.60;99.90;;;;;;5064524;28;20021;-72
2021/08/20 12:25:50;;;;;;;5.97;3.00;;;19.50;99.90;;;;;;5064385;28;20021;-74
2021/08/20 12:28:19;;;;;;;6.93;3.08;;;19.40;99.90;;;;;;5064371;28;20405;-75
2021/08/20 12:30:46;;;;;;;12.48;4.45;;;19.30;99.90;;;;;;5064376;28;20559;-77
2021/08/20 12:33:12;;;;;;;12.07;4.00;;;19.30;99.90;;;;;;5064313;28;20025;-76
2021/08/20 12:35:39;;;;;;;8.48;3.97;;;19.20;99.90;;;;;;5064307;28;20040;-74
2021/08/20 12:38:11;;;;;;;9.57;4.20;;;19.20;99.90;;;;;;5062804;28;20029;-75
2021/08/20 12:40:55;;;;;;;6.90;3.75;;;19.10;99.90;;;;;;5064213;28;20041;-74
2021/08/20 12:43:37;;;;;;;8.68;4.68;;;19.10;99.90;;;;;;5063016;28;20039;-76